sensor_id;sensor_type;location;lat;lon;timestamp;pressure;altitude;pressure_sealevel;temperature;humidity
76132;BME280;64877;50.994;13.650;2023-02-27T00:00:10;100554.16;;;-1.67;79.30
76132;BME280;64877;50.994;13.650;2023-02-27T00:02:42;100555.00;;;-1.63;79.32
76132;BME280;64877;50.994;13.650;2023-02-27T00:05:08;100556.72;;;-1.62;79.00
76132;BME280;64877;50.994;13.650;2023-02-27T00:07:34;100555.94;;;-1.69;79.61
76132;BME280;64877;50.994;13.650;2023-02-27T00:10:00;100559.44;;;-1.67;79.70
76132;BME280;64877;50.994;13.650;2023-02-27T00:12:25;100558.72;;;-1.79;79.58
76132;BME280;64877;50.994;13.650;2023-02-27T00:14:50;100565.06;;;-1.93;79.46
76132;BME280;64877;50.994;13.650;2023-02-27T00:17:16;100565.06;;;-1.94;79.92
76132;BME280;64877;50.994;13.650;2023-02-27T00:19:41;100561.75;;;-2.09;79.48
76132;BME280;64877;50.994;13.650;2023-02-27T00:22:07;100561.75;;;-2.12;80.43
76132;BME280;64877;50.994;13.650;2023-02-27T00:24:32;100563.56;;;-2.14;79.98
76132;BME280;64877;50.994;13.650;2023-02-27T00:26:58;100563.59;;;-2.20;80.48
76132;BME280;64877;50.994;13.650;2023-02-27T00:29:23;100560.94;;;-2.17;80.51
76132;BME280;64877;50.994;13.650;2023-02-27T00:31:48;100565.38;;;-2.19;79.90
76132;BME280;64877;50.994;13.650;2023-02-27T00:34:14;100564.38;;;-2.10;80.41
76132;BME280;64877;50.994;13.650;2023-02-27T00:36:40;100563.44;;;-2.03;79.33
76132;BME280;64877;50.994;13.650;2023-02-27T00:39:05;100565.22;;;-2.03;79.76
76132;BME280;64877;50.994;13.650;2023-02-27T00:41:31;100566.13;;;-2.09;80.09
76132;BME280;64877;50.994;13.650;2023-02-27T00:43:56;100564.38;;;-2.10;79.94
76132;BME280;64877;50.994;13.650;2023-02-27T00:46:21;100566.06;;;-2.03;79.22
76132;BME280;64877;50.994;13.650;2023-02-27T00:48:47;100560.78;;;-2.03;79.50
76132;BME280;64877;50.994;13.650;2023-02-27T00:51:13;100563.44;;;-2.03;79.99
76132;BME280;64877;50.994;13.650;2023-02-27T00:53:38;100567.81;;;-2.02;79.94
76132;BME280;64877;50.994;13.650;2023-02-27T00:56:04;100569.56;;;-2.01;79.95
76132;BME280;64877;50.994;13.650;2023-02-27T00:58:29;100561.69;;;-2.05;79.66
76132;BME280;64877;50.994;13.650;2023-02-27T01:00:58;100569.66;;;-2.07;79.83
76132;BME280;64877;50.994;13.650;2023-02-27T01:03:23;100569.66;;;-2.10;80.21
76132;BME280;64877;50.994;13.650;2023-02-27T01:05:49;100562.59;;;-2.08;80.54
76132;BME280;64877;50.994;13.650;2023-02-27T01:08:15;100566.94;;;-2.04;79.95
76132;BME280;64877;50.994;13.650;2023-02-27T01:10:40;100562.53;;;-2.02;79.78
76132;BME280;64877;50.994;13.650;2023-02-27T01:13:06;100559.81;;;-1.96;80.25
76132;BME280;64877;50.994;13.650;2023-02-27T01:15:31;100556.25;;;-1.93;80.87
76132;BME280;64877;50.994;13.650;2023-02-27T01:17:56;100553.75;;;-2.05;80.04
76132;BME280;64877;50.994;13.650;2023-02-27T01:20:22;100553.78;;;-2.07;79.31
76132;BME280;64877;50.994;13.650;2023-02-27T01:22:47;100555.44;;;-2.00;80.49
76132;BME280;64877;50.994;13.650;2023-02-27T01:25:12;100555.41;;;-1.97;80.75
76132;BME280;64877;50.994;13.650;2023-02-27T01:27:38;100553.72;;;-2.04;80.60
76132;BME280;64877;50.994;13.650;2023-02-27T01:30:04;100558.13;;;-2.03;80.33
76132;BME280;64877;50.994;13.650;2023-02-27T01:32:31;100558.03;;;-1.94;79.18
76132;BME280;64877;50.994;13.650;2023-02-27T01:34:56;100552.75;;;-1.97;79.00
76132;BME280;64877;50.994;13.650;2023-02-27T01:37:21;100556.34;;;-2.04;80.28
76132;BME280;64877;50.994;13.650;2023-02-27T01:39:47;100548.41;;;-2.04;80.78
76132;BME280;64877;50.994;13.650;2023-02-27T01:42:25;100553.69;;;-2.01;80.61
76132;BME280;64877;50.994;13.650;2023-02-27T01:45:39;100554.59;;;-2.02;81.15
76132;BME280;64877;50.994;13.650;2023-02-27T01:48:11;100549.34;;;-2.06;80.31
76132;BME280;64877;50.994;13.650;2023-02-27T01:50:43;100558.22;;;-2.11;80.47
76132;BME280;64877;50.994;13.650;2023-02-27T01:53:11;100563.50;;;-2.11;80.44
76132;BME280;64877;50.994;13.650;2023-02-27T01:55:37;100552.91;;;-2.09;79.97
76132;BME280;64877;50.994;13.650;2023-02-27T01:58:05;100561.81;;;-2.16;79.34
76132;BME280;64877;50.994;13.650;2023-02-27T02:00:32;100562.81;;;-2.26;80.09
76132;BME280;64877;50.994;13.650;2023-02-27T02:03:36;100560.31;;;-2.39;80.68
76132;BME280;64877;50.994;13.650;2023-02-27T02:06:05;100569.19;;;-2.47;81.05
76132;BME280;64877;50.994;13.650;2023-02-27T02:08:34;100571.88;;;-2.50;81.52
76132;BME280;64877;50.994;13.650;2023-02-27T02:11:01;100571.00;;;-2.52;80.79
76132;BME280;64877;50.994;13.650;2023-02-27T02:13:27;100583.28;;;-2.47;80.61
76132;BME280;64877;50.994;13.650;2023-02-27T02:26:07;100581.53;;;-2.49;80.36
76132;BME280;64877;50.994;13.650;2023-02-27T02:31:08;100586.97;;;-2.65;81.12
76132;BME280;64877;50.994;13.650;2023-02-27T02:47:55;100594.97;;;-2.74;81.02
76132;BME280;64877;50.994;13.650;2023-02-27T02:55:42;100595.78;;;-2.66;80.40
76132;BME280;64877;50.994;13.650;2023-02-27T02:58:20;100597.56;;;-2.63;79.61
76132;BME280;64877;50.994;13.650;2023-02-27T03:01:36;100599.25;;;-2.56;81.15
76132;BME280;64877;50.994;13.650;2023-02-27T03:04:13;100597.38;;;-2.45;81.97
76132;BME280;64877;50.994;13.650;2023-02-27T03:06:40;100601.81;;;-2.50;80.66
76132;BME280;64877;50.994;13.650;2023-02-27T03:09:22;100606.13;;;-2.40;81.42
76132;BME280;64877;50.994;13.650;2023-02-27T03:11:50;100601.63;;;-2.28;81.81
76132;BME280;64877;50.994;13.650;2023-02-27T03:14:40;100596.22;;;-2.19;81.07
76132;BME280;64877;50.994;13.650;2023-02-27T03:17:21;100599.66;;;-2.11;79.55
76132;BME280;64877;50.994;13.650;2023-02-27T03:19:57;100606.69;;;-2.07;79.10
76132;BME280;64877;50.994;13.650;2023-02-27T03:22:31;100602.28;;;-2.10;78.64
76132;BME280;64877;50.994;13.650;2023-02-27T03:25:00;100599.75;;;-2.20;79.30
76132;BME280;64877;50.994;13.650;2023-02-27T03:27:30;100601.50;;;-2.19;79.32
76132;BME280;64877;50.994;13.650;2023-02-27T03:30:03;100604.25;;;-2.27;79.30
76132;BME280;64877;50.994;13.650;2023-02-27T03:32:37;100613.91;;;-2.24;79.33
76132;BME280;64877;50.994;13.650;2023-02-27T03:35:07;100607.72;;;-2.22;79.39
76132;BME280;64877;50.994;13.650;2023-02-27T03:42:41;100611.91;;;-2.01;78.11
76132;BME280;64877;50.994;13.650;2023-02-27T03:45:48;100611.91;;;-2.01;80.16
76132;BME280;64877;50.994;13.650;2023-02-27T03:48:15;100612.78;;;-2.00;79.73
76132;BME280;64877;50.994;13.650;2023-02-27T03:50:40;100617.19;;;-1.98;79.50
76132;BME280;64877;50.994;13.650;2023-02-27T03:53:13;100619.88;;;-2.04;79.82
76132;BME280;64877;50.994;13.650;2023-02-27T03:55:45;100622.63;;;-2.13;79.48
76132;BME280;64877;50.994;13.650;2023-02-27T03:58:11;100617.19;;;-2.01;80.15
76132;BME280;64877;50.994;13.650;2023-02-27T04:00:37;100630.41;;;-1.99;80.11
76132;BME280;64877;50.994;13.650;2023-02-27T04:03:03;100618.03;;;-1.96;79.94
76132;BME280;64877;50.994;13.650;2023-02-27T04:05:29;100621.59;;;-1.98;79.92
76132;BME280;64877;50.994;13.650;2023-02-27T04:08:38;100619.84;;;-2.01;79.55
76132;BME280;64877;50.994;13.650;2023-02-27T04:13:46;100621.53;;;-1.95;80.31
76132;BME280;64877;50.994;13.650;2023-02-27T04:19:41;100625.94;;;-1.93;79.31
76132;BME280;64877;50.994;13.650;2023-02-27T04:22:34;100624.25;;;-2.00;79.42
76132;BME280;64877;50.994;13.650;2023-02-27T04:28:02;100639.28;;;-2.03;81.56
76132;BME280;64877;50.994;13.650;2023-02-27T04:36:11;100642.78;;;-2.01;81.18
76132;BME280;64877;50.994;13.650;2023-02-27T04:39:00;100641.94;;;-2.03;80.82
76132;BME280;64877;50.994;13.650;2023-02-27T04:41:42;100638.38;;;-2.04;81.07
76132;BME280;64877;50.994;13.650;2023-02-27T04:44:11;100638.41;;;-2.02;80.56
76132;BME280;64877;50.994;13.650;2023-02-27T04:46:40;100629.53;;;-1.98;80.70
76132;BME280;64877;50.994;13.650;2023-02-27T04:49:25;100639.16;;;-1.94;80.85
76132;BME280;64877;50.994;13.650;2023-02-27T04:51:57;100633.97;;;-2.02;79.48
76132;BME280;64877;50.994;13.650;2023-02-27T04:54:34;100641.91;;;-1.99;79.87
76132;BME280;64877;50.994;13.650;2023-02-27T04:57:07;100638.38;;;-2.01;79.65
76132;BME280;64877;50.994;13.650;2023-02-27T04:59:38;100643.66;;;-2.01;79.69
76132;BME280;64877;50.994;13.650;2023-02-27T05:02:18;100644.44;;;-1.91;80.46
76132;BME280;64877;50.994;13.650;2023-02-27T05:04:50;100645.28;;;-1.88;80.19
76132;BME280;64877;50.994;13.650;2023-02-27T05:07:21;100646.19;;;-1.90;79.65
76132;BME280;64877;50.994;13.650;2023-02-27T05:09:55;100651.50;;;-1.92;79.68
76132;BME280;64877;50.994;13.650;2023-02-27T05:12:31;100647.03;;;-1.87;80.28
76132;BME280;64877;50.994;13.650;2023-02-27T05:15:12;100649.63;;;-1.82;79.54
76132;BME280;64877;50.994;13.650;2023-02-27T05:17:51;100658.47;;;-1.83;79.88
76132;BME280;64877;50.994;13.650;2023-02-27T05:20:21;100666.41;;;-1.85;79.77
76132;BME280;64877;50.994;13.650;2023-02-27T05:23:24;100655.81;;;-1.82;80.06
76132;BME280;64877;50.994;13.650;2023-02-27T05:25:57;100659.31;;;-1.78;79.86
76132;BME280;64877;50.994;13.650;2023-02-27T05:28:37;100663.66;;;-1.75;79.36
76132;BME280;64877;50.994;13.650;2023-02-27T05:31:15;100668.13;;;-1.77;80.37
76132;BME280;64877;50.994;13.650;2023-02-27T05:36:29;100687.63;;;-1.86;80.26
76132;BME280;64877;50.994;13.650;2023-02-27T05:38:58;100692.88;;;-1.82;79.85
76132;BME280;64877;50.994;13.650;2023-02-27T05:41:32;100685.78;;;-1.79;80.30
76132;BME280;64877;50.994;13.650;2023-02-27T05:44:11;100684.84;;;-1.74;79.75
76132;BME280;64877;50.994;13.650;2023-02-27T05:46:43;100678.63;;;-1.71;80.08
76132;BME280;64877;50.994;13.650;2023-02-27T05:49:17;100690.97;;;-1.70;79.83
76132;BME280;64877;50.994;13.650;2023-02-27T05:51:49;100686.50;;;-1.65;79.89
76132;BME280;64877;50.994;13.650;2023-02-27T05:54:23;100684.78;;;-1.69;78.61
76132;BME280;64877;50.994;13.650;2023-02-27T05:56:53;100691.91;;;-1.74;78.93
76132;BME280;64877;50.994;13.650;2023-02-27T06:01:50;100698.16;;;-1.82;78.43
76132;BME280;64877;50.994;13.650;2023-02-27T06:04:15;100703.47;;;-1.82;78.58
76132;BME280;64877;50.994;13.650;2023-02-27T06:06:40;100702.53;;;-1.77;78.44
76132;BME280;64877;50.994;13.650;2023-02-27T06:09:07;100700.75;;;-1.74;79.16
76132;BME280;64877;50.994;13.650;2023-02-27T06:11:32;100714.81;;;-1.70;80.58
76132;BME280;64877;50.994;13.650;2023-02-27T06:13:58;100711.22;;;-1.66;80.61
76132;BME280;64877;50.994;13.650;2023-02-27T06:16:23;100715.69;;;-1.68;78.31
76132;BME280;64877;50.994;13.650;2023-02-27T06:18:48;100716.59;;;-1.72;79.91
76132;BME280;64877;50.994;13.650;2023-02-27T06:21:14;100717.38;;;-1.63;80.88
76132;BME280;64877;50.994;13.650;2023-02-27T06:23:39;100724.44;;;-1.65;81.38
76132;BME280;64877;50.994;13.650;2023-02-27T06:26:05;100721.91;;;-1.75;79.04
76132;BME280;64877;50.994;13.650;2023-02-27T06:28:30;100718.28;;;-1.65;81.14
76132;BME280;64877;50.994;13.650;2023-02-27T06:30:56;100716.44;;;-1.60;79.89
76132;BME280;64877;50.994;13.650;2023-02-27T06:33:25;100722.72;;;-1.67;78.71
76132;BME280;64877;50.994;13.650;2023-02-27T06:35:50;100724.41;;;-1.60;79.51
76132;BME280;64877;50.994;13.650;2023-02-27T06:38:16;100729.69;;;-1.57;78.69
76132;BME280;64877;50.994;13.650;2023-02-27T06:40:42;100736.78;;;-1.62;78.46
76132;BME280;64877;50.994;13.650;2023-02-27T06:43:07;100736.81;;;-1.65;77.21
76132;BME280;64877;50.994;13.650;2023-02-27T06:45:33;100732.94;;;-1.35;78.80
76132;BME280;64877;50.994;13.650;2023-02-27T06:47:58;100733.41;;;-0.99;78.99
76132;BME280;64877;50.994;13.650;2023-02-27T06:50:24;100729.50;;;-0.72;75.50
76132;BME280;64877;50.994;13.650;2023-02-27T06:52:49;100737.75;;;-0.34;77.22
76132;BME280;64877;50.994;13.650;2023-02-27T06:55:15;100728.34;;;0.01;76.86
76132;BME280;64877;50.994;13.650;2023-02-27T06:57:46;100726.31;;;0.15;75.16
76132;BME280;64877;50.994;13.650;2023-02-27T07:00:12;100722.81;;;0.13;74.22
76132;BME280;64877;50.994;13.650;2023-02-27T07:02:38;100725.69;;;0.01;74.87
76132;BME280;64877;50.994;13.650;2023-02-27T07:05:04;100725.88;;;-0.11;75.12
76132;BME280;64877;50.994;13.650;2023-02-27T07:07:31;100725.88;;;-0.11;76.57
76132;BME280;64877;50.994;13.650;2023-02-27T07:09:56;100724.16;;;-0.15;77.14
76132;BME280;64877;50.994;13.650;2023-02-27T07:12:22;100732.28;;;-0.23;76.78
76132;BME280;64877;50.994;13.650;2023-02-27T07:14:47;100731.44;;;-0.27;76.85
76132;BME280;64877;50.994;13.650;2023-02-27T07:17:12;100724.59;;;-0.40;75.84
76132;BME280;64877;50.994;13.650;2023-02-27T07:19:38;100723.75;;;-0.45;74.42
76132;BME280;64877;50.994;13.650;2023-02-27T07:22:03;100733.50;;;-0.44;75.07
76132;BME280;64877;50.994;13.650;2023-02-27T07:24:29;100733.66;;;-0.56;74.10
76132;BME280;64877;50.994;13.650;2023-02-27T07:26:54;100728.38;;;-0.56;74.50
76132;BME280;64877;50.994;13.650;2023-02-27T07:29:20;100727.44;;;-0.54;78.66
76132;BME280;64877;50.994;13.650;2023-02-27T07:31:45;100733.66;;;-0.56;73.96
76132;BME280;64877;50.994;13.650;2023-02-27T07:34:11;100729.25;;;-0.57;75.10
76132;BME280;64877;50.994;13.650;2023-02-27T07:36:38;100728.41;;;-0.58;78.09
76132;BME280;64877;50.994;13.650;2023-02-27T07:39:04;100728.44;;;-0.59;77.94
76132;BME280;64877;50.994;13.650;2023-02-27T07:41:30;100731.88;;;-0.56;78.76
76132;BME280;64877;50.994;13.650;2023-02-27T07:43:55;100736.31;;;-0.55;79.36
76132;BME280;64877;50.994;13.650;2023-02-27T07:46:21;100728.25;;;-0.50;79.17
76132;BME280;64877;50.994;13.650;2023-02-27T07:48:48;100731.81;;;-0.49;75.88
76132;BME280;64877;50.994;13.650;2023-02-27T07:51:14;100726.41;;;-0.45;77.63
76132;BME280;64877;50.994;13.650;2023-02-27T07:53:39;100725.50;;;-0.42;74.98
76132;BME280;64877;50.994;13.650;2023-02-27T07:56:05;100735.09;;;-0.34;74.02
76132;BME280;64877;50.994;13.650;2023-02-27T07:58:30;100733.19;;;-0.26;76.23
76132;BME280;64877;50.994;13.650;2023-02-27T08:00:56;100733.16;;;-0.22;76.70
76132;BME280;64877;50.994;13.650;2023-02-27T08:03:21;100732.25;;;-0.21;76.87
76132;BME280;64877;50.994;13.650;2023-02-27T08:05:47;100737.56;;;-0.21;77.59
76132;BME280;64877;50.994;13.650;2023-02-27T08:08:12;100742.94;;;-0.26;74.13
76132;BME280;64877;50.994;13.650;2023-02-27T08:10:38;100749.97;;;-0.23;75.34
76132;BME280;64877;50.994;13.650;2023-02-27T08:13:03;100745.59;;;-0.24;75.97
76132;BME280;64877;50.994;13.650;2023-02-27T08:15:28;100745.38;;;-0.12;76.49
76132;BME280;64877;50.994;13.650;2023-02-27T08:17:54;100754.16;;;-0.10;73.41
76132;BME280;64877;50.994;13.650;2023-02-27T08:20:19;100748.81;;;-0.07;72.97
76132;BME280;64877;50.994;13.650;2023-02-27T08:22:48;100757.63;;;-0.04;73.13
76132;BME280;64877;50.994;13.650;2023-02-27T08:25:13;100763.84;;;-0.05;72.58
76132;BME280;64877;50.994;13.650;2023-02-27T08:27:39;100764.59;;;0.02;74.02
76132;BME280;64877;50.994;13.650;2023-02-27T08:30:06;100771.63;;;0.05;72.70
76132;BME280;64877;50.994;13.650;2023-02-27T08:32:32;100771.50;;;0.12;72.37
76132;BME280;64877;50.994;13.650;2023-02-27T08:34:58;100770.81;;;-0.01;72.11
76132;BME280;64877;50.994;13.650;2023-02-27T08:37:26;100768.13;;;0.03;72.51
76132;BME280;64877;50.994;13.650;2023-02-27T08:39:52;100771.88;;;-0.09;71.99
76132;BME280;64877;50.994;13.650;2023-02-27T08:42:17;100769.16;;;-0.06;73.06
76132;BME280;64877;50.994;13.650;2023-02-27T08:44:43;100771.72;;;-0.02;72.25
76132;BME280;64877;50.994;13.650;2023-02-27T08:47:08;100773.25;;;0.13;74.04
76132;BME280;64877;50.994;13.650;2023-02-27T08:49:34;100773.03;;;0.27;73.53
76132;BME280;64877;50.994;13.650;2023-02-27T08:51:59;100772.94;;;0.32;72.65
76132;BME280;64877;50.994;13.650;2023-02-27T08:54:25;100764.81;;;0.39;74.23
76132;BME280;64877;50.994;13.650;2023-02-27T08:56:50;100768.44;;;0.37;70.87
76132;BME280;64877;50.994;13.650;2023-02-27T08:59:16;100771.13;;;0.34;71.46
76132;BME280;64877;50.994;13.650;2023-02-27T09:01:41;100772.00;;;0.36;71.06
76132;BME280;64877;50.994;13.650;2023-02-27T09:04:08;100777.28;;;0.37;72.45
76132;BME280;64877;50.994;13.650;2023-02-27T09:06:35;100787.69;;;0.48;72.86
76132;BME280;64877;50.994;13.650;2023-02-27T09:09:01;100782.31;;;0.52;71.90
76132;BME280;64877;50.994;13.650;2023-02-27T09:11:28;100792.91;;;0.54;72.09
76132;BME280;64877;50.994;13.650;2023-02-27T09:13:54;100796.38;;;0.58;70.70
76132;BME280;64877;50.994;13.650;2023-02-27T09:16:21;100779.31;;;0.69;72.28
76132;BME280;64877;50.994;13.650;2023-02-27T09:18:47;100779.53;;;0.60;71.31
76132;BME280;64877;50.994;13.650;2023-02-27T09:21:12;100782.88;;;0.68;71.18
76132;BME280;64877;50.994;13.650;2023-02-27T09:23:38;100778.16;;;0.84;70.94
76132;BME280;64877;50.994;13.650;2023-02-27T09:26:04;100785.69;;;1.07;71.86
76132;BME280;64877;50.994;13.650;2023-02-27T09:28:30;100775.81;;;1.12;69.81
76132;BME280;64877;50.994;13.650;2023-02-27T09:31:02;100782.91;;;1.12;70.50
76132;BME280;64877;50.994;13.650;2023-02-27T09:33:29;100782.09;;;1.08;69.04
76132;BME280;64877;50.994;13.650;2023-02-27T09:35:55;100782.38;;;0.96;68.51
76132;BME280;64877;50.994;13.650;2023-02-27T09:38:20;100792.22;;;0.89;69.82
76132;BME280;64877;50.994;13.650;2023-02-27T09:40:48;100795.97;;;0.79;69.15
76132;BME280;64877;50.994;13.650;2023-02-27T09:43:20;100795.09;;;0.78;72.66
76132;BME280;64877;50.994;13.650;2023-02-27T09:45:52;100796.66;;;0.89;71.30
76132;BME280;64877;50.994;13.650;2023-02-27T09:48:29;100799.28;;;0.92;70.85
76132;BME280;64877;50.994;13.650;2023-02-27T09:50:56;100800.16;;;0.92;71.10
76132;BME280;64877;50.994;13.650;2023-02-27T09:53:29;100801.81;;;0.98;70.42
76132;BME280;64877;50.994;13.650;2023-02-27T09:56:16;100803.63;;;0.96;71.39
76132;BME280;64877;50.994;13.650;2023-02-27T09:58:57;100791.94;;;1.05;71.90
76132;BME280;64877;50.994;13.650;2023-02-27T10:06:57;100799.16;;;0.98;70.65
76132;BME280;64877;50.994;13.650;2023-02-27T10:12:44;100798.81;;;1.15;71.30
76132;BME280;64877;50.994;13.650;2023-02-27T10:15:27;100814.97;;;1.06;69.60
76132;BME280;64877;50.994;13.650;2023-02-27T10:17:58;100811.63;;;0.96;70.76
76132;BME280;64877;50.994;13.650;2023-02-27T10:20:31;100803.31;;;1.11;70.71
76132;BME280;64877;50.994;13.650;2023-02-27T10:23:00;100801.50;;;1.13;70.77
76132;BME280;64877;50.994;13.650;2023-02-27T10:25:33;100809.34;;;1.19;70.98
76132;BME280;64877;50.994;13.650;2023-02-27T10:28:17;100813.66;;;1.26;71.35
76132;BME280;64877;50.994;13.650;2023-02-27T10:30:47;100812.81;;;1.23;71.51
76132;BME280;64877;50.994;13.650;2023-02-27T10:33:51;100810.25;;;1.18;70.77
76132;BME280;64877;50.994;13.650;2023-02-27T10:36:12;100814.63;;;1.22;70.09
76132;BME280;64877;50.994;13.650;2023-02-27T10:38:53;100807.41;;;1.27;71.21
76132;BME280;64877;50.994;13.650;2023-02-27T10:41:21;100813.50;;;1.33;70.66
76132;BME280;64877;50.994;13.650;2023-02-27T10:43:47;100810.03;;;1.31;70.79
76132;BME280;64877;50.994;13.650;2023-02-27T10:46:16;100815.22;;;1.37;70.10
76132;BME280;64877;50.994;13.650;2023-02-27T10:48:42;100800.16;;;1.36;71.31
76132;BME280;64877;50.994;13.650;2023-02-27T10:51:28;100811.91;;;1.25;69.85
76132;BME280;64877;50.994;13.650;2023-02-27T10:54:23;100806.34;;;1.36;72.29
76132;BME280;64877;50.994;13.650;2023-02-27T10:56:50;100801.75;;;1.44;71.12
76132;BME280;64877;50.994;13.650;2023-02-27T10:59:27;100800.44;;;1.62;72.09
76132;BME280;64877;50.994;13.650;2023-02-27T11:01:55;100798.50;;;1.70;71.41
76132;BME280;64877;50.994;13.650;2023-02-27T11:04:25;100797.47;;;1.76;71.79
76132;BME280;64877;50.994;13.650;2023-02-27T11:06:52;100794.78;;;1.77;72.24
76132;BME280;64877;50.994;13.650;2023-02-27T11:09:25;100793.91;;;1.77;72.57
76132;BME280;64877;50.994;13.650;2023-02-27T11:11:51;100798.50;;;1.70;72.26
76132;BME280;64877;50.994;13.650;2023-02-27T11:14:32;100801.41;;;1.58;73.14
76132;BME280;64877;50.994;13.650;2023-02-27T11:17:01;100799.81;;;1.51;71.84
76132;BME280;64877;50.994;13.650;2023-02-27T11:19:35;100792.84;;;1.44;71.76
76132;BME280;64877;50.994;13.650;2023-02-27T11:22:05;100802.63;;;1.43;73.23
76132;BME280;64877;50.994;13.650;2023-02-27T11:24:31;100794.78;;;1.37;73.38
76132;BME280;64877;50.994;13.650;2023-02-27T11:27:03;100793.78;;;1.43;72.12
76132;BME280;64877;50.994;13.650;2023-02-27T11:29:30;100788.47;;;1.43;72.69
76132;BME280;64877;50.994;13.650;2023-02-27T11:31:56;100790.09;;;1.48;73.45
76132;BME280;64877;50.994;13.650;2023-02-27T11:34:35;100786.41;;;1.54;72.74
76132;BME280;64877;50.994;13.650;2023-02-27T11:37:18;100790.78;;;1.58;72.53
76132;BME280;64877;50.994;13.650;2023-02-27T11:42:36;100780.47;;;1.81;73.99
76132;BME280;64877;50.994;13.650;2023-02-27T11:45:32;100779.53;;;1.84;71.52
76132;BME280;64877;50.994;13.650;2023-02-27T11:48:26;100779.44;;;1.87;71.76
76132;BME280;64877;50.994;13.650;2023-02-27T11:53:33;100779.06;;;2.04;73.19
76132;BME280;64877;50.994;13.650;2023-02-27T11:56:06;100776.41;;;2.04;70.97
76132;BME280;64877;50.994;13.650;2023-02-27T11:58:44;100775.50;;;2.03;71.91
76132;BME280;64877;50.994;13.650;2023-02-27T12:01:21;100766.63;;;2.03;70.20
76132;BME280;64877;50.994;13.650;2023-02-27T12:03:55;100765.75;;;2.04;70.08
76132;BME280;64877;50.994;13.650;2023-02-27T12:06:58;100760.47;;;2.01;69.68
76132;BME280;64877;50.994;13.650;2023-02-27T12:09:37;100763.19;;;1.99;68.70
76132;BME280;64877;50.994;13.650;2023-02-27T12:12:06;100755.91;;;2.06;68.61
76132;BME280;64877;50.994;13.650;2023-02-27T12:14:47;100763.75;;;2.12;68.16
76132;BME280;64877;50.994;13.650;2023-02-27T12:17:43;100763.97;;;2.03;67.46
76132;BME280;64877;50.994;13.650;2023-02-27T12:22:43;100762.38;;;1.96;66.32
76132;BME280;64877;50.994;13.650;2023-02-27T12:25:16;100755.16;;;2.01;65.55
76132;BME280;64877;50.994;13.650;2023-02-27T12:27:54;100756.91;;;2.02;66.06
76132;BME280;64877;50.994;13.650;2023-02-27T12:30:32;100762.28;;;1.99;66.18
76132;BME280;64877;50.994;13.650;2023-02-27T12:33:52;100764.94;;;2.00;68.66
76132;BME280;64877;50.994;13.650;2023-02-27T12:35:57;100759.44;;;2.06;68.35
76132;BME280;64877;50.994;13.650;2023-02-27T12:38:23;100755.97;;;2.04;67.97
76132;BME280;64877;50.994;13.650;2023-02-27T12:44:01;100760.47;;;2.01;67.91
76132;BME280;64877;50.994;13.650;2023-02-27T12:49:24;100757.94;;;2.30;68.45
76132;BME280;64877;50.994;13.650;2023-02-27T12:52:12;100755.28;;;2.30;66.43
76132;BME280;64877;50.994;13.650;2023-02-27T12:54:59;100754.44;;;2.28;65.64
76132;BME280;64877;50.994;13.650;2023-02-27T12:57:31;100750.19;;;2.21;65.89
76132;BME280;64877;50.994;13.650;2023-02-27T13:03:00;100752.44;;;2.37;67.74
76132;BME280;64877;50.994;13.650;2023-02-27T13:14:08;100746.59;;;2.24;69.52
76132;BME280;64877;50.994;13.650;2023-02-27T13:16:42;100750.25;;;2.18;69.08
76132;BME280;64877;50.994;13.650;2023-02-27T13:19:14;100751.44;;;2.06;68.27
76132;BME280;64877;50.994;13.650;2023-02-27T13:24:42;100750.75;;;1.98;69.31
76132;BME280;64877;50.994;13.650;2023-02-27T13:27:27;100743.84;;;1.91;69.98
76132;BME280;64877;50.994;13.650;2023-02-27T13:32:35;100749.28;;;1.87;70.14
76132;BME280;64877;50.994;13.650;2023-02-27T13:37:57;100740.97;;;1.99;70.38
76132;BME280;64877;50.994;13.650;2023-02-27T13:40:32;100746.19;;;2.05;69.22
76132;BME280;64877;50.994;13.650;2023-02-27T13:43:45;100745.22;;;2.07;68.86
76132;BME280;64877;50.994;13.650;2023-02-27T13:45:58;100739.88;;;2.07;68.82
76132;BME280;64877;50.994;13.650;2023-02-27T13:48:40;100743.34;;;2.11;69.28
76132;BME280;64877;50.994;13.650;2023-02-27T13:51:52;100743.34;;;2.11;70.66
76132;BME280;64877;50.994;13.650;2023-02-27T14:04:45;100754.44;;;1.94;68.00
76132;BME280;64877;50.994;13.650;2023-02-27T14:07:13;100759.13;;;1.85;67.66
76132;BME280;64877;50.994;13.650;2023-02-27T14:09:44;100756.56;;;1.78;69.25
76132;BME280;64877;50.994;13.650;2023-02-27T14:14:59;100761.84;;;1.81;70.11
76132;BME280;64877;50.994;13.650;2023-02-27T14:25:51;100761.78;;;1.83;59.48
76132;BME280;64877;50.994;13.650;2023-02-27T14:31:02;100750.19;;;1.86;60.18
76132;BME280;64877;50.994;13.650;2023-02-27T14:33:33;100751.13;;;1.85;61.36
76132;BME280;64877;50.994;13.650;2023-02-27T14:36:03;100755.53;;;1.86;58.00
76132;BME280;64877;50.994;13.650;2023-02-27T14:38:32;100755.47;;;1.87;61.07
76132;BME280;64877;50.994;13.650;2023-02-27T14:41:27;100767.78;;;1.93;60.12
76132;BME280;64877;50.994;13.650;2023-02-27T14:43:57;100760.03;;;1.82;57.73
76132;BME280;64877;50.994;13.650;2023-02-27T14:46:33;100763.59;;;1.83;58.10
76132;BME280;64877;50.994;13.650;2023-02-27T14:49:02;100770.63;;;1.85;58.69
76132;BME280;64877;50.994;13.650;2023-02-27T14:51:31;100767.88;;;1.88;58.47
76132;BME280;64877;50.994;13.650;2023-02-27T14:54:10;100766.34;;;1.79;57.55
76132;BME280;64877;50.994;13.650;2023-02-27T14:56:37;100767.28;;;1.77;57.60
76132;BME280;64877;50.994;13.650;2023-02-27T14:59:21;100772.75;;;1.71;58.18
76132;BME280;64877;50.994;13.650;2023-02-27T15:01:47;100770.13;;;1.69;57.05
76132;BME280;64877;50.994;13.650;2023-02-27T15:04:17;100775.47;;;1.68;59.47
76132;BME280;64877;50.994;13.650;2023-02-27T15:06:49;100777.09;;;1.73;60.35
76132;BME280;64877;50.994;13.650;2023-02-27T15:11:48;100777.09;;;1.75;59.39